Time;durP1;ratioP1;P1;durP2;ratioP2;P2;SDS_P1;SDS_P2;PMS_P1;PMS_P2;Temp;Humidity;BMP_temperature;BMP_pressure;BME280_temperature;BME280_humidity;BME280_pressure;Samples;Min_cycle;Max_cycle;Signal;HPM_P1;HPM_P2
2022/05/09 00:01:27;;;;;;;13.75;6.68;;;;;;;;;;5107148;28;20549;-50
2022/05/09 00:03:54;;;;;;;12.20;6.82;;;;;;;;;;5104182;28;20118;-54
2022/05/09 00:06:20;;;;;;;13.00;7.20;;;;;;;;;;5105708;28;20027;-54
2022/05/09 00:08:46;;;;;;;12.10;6.63;;;;;;;;;;5107129;28;20689;-52
2022/05/09 00:11:13;;;;;;;13.32;6.97;;;;;;;;;;5108085;28;20058;-53
2022/05/09 00:13:39;;;;;;;14.07;7.80;;;;;;;;;;5108187;28;20110;-51
2022/05/09 00:16:05;;;;;;;12.32;7.05;;;;;;;;;;5110644;28;20015;-55
2022/05/09 00:18:32;;;;;;;13.05;6.93;;;;;;;;;;5110054;28;20124;-55
2022/05/09 00:20:58;;;;;;;11.68;6.18;;;;;;;;;;5109938;28;20053;-54
2022/05/09 00:23:25;;;;;;;13.27;7.55;;;;;;;;;;5110288;28;20023;-50
2022/05/09 00:25:51;;;;;;;12.57;6.70;;;;;;;;;;5110167;28;20057;-55
2022/05/09 00:28:18;;;;;;;13.48;6.88;;;;;;;;;;5109807;28;20504;-51
2022/05/09 00:30:44;;;;;;;13.80;6.80;;;;;;;;;;5110093;28;20088;-55
2022/05/09 00:33:10;;;;;;;12.40;7.05;;;;;;;;;;5097945;28;20039;-53
2022/05/09 00:35:37;;;;;;;11.60;6.57;;;;;;;;;;5111503;28;20123;-54
2022/05/09 00:38:03;;;;;;;11.43;6.13;;;;;;;;;;5111672;28;20027;-53
2022/05/09 00:40:30;;;;;;;12.07;6.18;;;;;;;;;;5111624;28;20088;-53
2022/05/09 00:42:56;;;;;;;11.77;5.95;;;;;;;;;;5111096;28;20560;-53
2022/05/09 00:45:24;;;;;;;13.68;6.85;;;;;;;;;;5111512;28;20548;-55
2022/05/09 00:47:50;;;;;;;11.85;6.13;;;;;;;;;;5109277;28;20032;-55
2022/05/09 00:50:18;;;;;;;12.55;5.95;;;;;;;;;;5109870;28;20127;-52
2022/05/09 00:52:51;;;;;;;11.35;6.07;;;;;;;;;;5110945;28;20127;-54
2022/05/09 00:55:29;;;;;;;11.93;6.18;;;;;;;;;;5110621;28;20533;-55
2022/05/09 00:57:58;;;;;;;11.85;6.53;;;;;;;;;;5110652;28;20106;-53
2022/05/09 01:00:25;;;;;;;9.30;5.32;;;;;;;;;;5109557;28;20050;-53
2022/05/09 01:02:59;;;;;;;11.68;5.78;;;;;;;;;;5111128;28;20034;-52
2022/05/09 01:05:26;;;;;;;11.98;6.20;;;;;;;;;;5104717;28;20024;-54
2022/05/09 01:07:52;;;;;;;12.27;6.10;;;;;;;;;;5099767;28;20793;-54
2022/05/09 01:10:19;;;;;;;10.70;5.43;;;;;;;;;;5110342;28;20146;-55
2022/05/09 01:12:46;;;;;;;11.95;6.00;;;;;;;;;;5110566;28;20055;-53
2022/05/09 01:15:14;;;;;;;9.40;5.47;;;;;;;;;;5110013;28;20030;-54
2022/05/09 01:17:40;;;;;;;12.80;5.50;;;;;;;;;;5110187;27;20019;-49
2022/05/09 01:20:08;;;;;;;11.10;5.93;;;;;;;;;;5109928;28;20034;-52
2022/05/09 01:22:36;;;;;;;10.55;5.45;;;;;;;;;;5109713;28;20134;-54
2022/05/09 01:25:04;;;;;;;12.07;6.18;;;;;;;;;;5110399;28;20031;-51
2022/05/09 01:27:30;;;;;;;12.45;5.55;;;;;;;;;;5109127;28;20080;-54
2022/05/09 01:29:57;;;;;;;11.23;5.30;;;;;;;;;;5109261;28;20047;-54
2022/05/09 01:32:29;;;;;;;10.52;5.72;;;;;;;;;;5109988;28;20051;-53
2022/05/09 01:34:58;;;;;;;9.60;5.10;;;;;;;;;;5109702;28;20027;-53
2022/05/09 01:37:25;;;;;;;9.55;5.00;;;;;;;;;;5109767;28;20031;-52
2022/05/09 01:39:51;;;;;;;11.45;6.20;;;;;;;;;;5110901;27;20066;-48
2022/05/09 01:42:17;;;;;;;13.07;5.78;;;;;;;;;;5109609;28;20019;-52
2022/05/09 01:44:43;;;;;;;10.57;5.50;;;;;;;;;;5109935;28;20269;-52
2022/05/09 01:49:54;;;;;;;8.07;4.60;;;;;;;;;;5110134;28;20057;-51
2022/05/09 01:52:21;;;;;;;9.18;4.68;;;;;;;;;;5110035;28;20393;-50
2022/05/09 01:54:48;;;;;;;10.45;5.10;;;;;;;;;;5110282;28;20613;-52
2022/05/09 01:57:14;;;;;;;10.05;4.90;;;;;;;;;;5107444;28;20160;-54
2022/05/09 01:59:41;;;;;;;8.88;5.07;;;;;;;;;;5100732;28;20458;-54
2022/05/09 02:02:08;;;;;;;9.55;5.20;;;;;;;;;;5109908;28;20422;-52
2022/05/09 02:04:35;;;;;;;9.18;5.05;;;;;;;;;;5109291;27;20019;-51
2022/05/09 02:07:01;;;;;;;10.30;4.57;;;;;;;;;;5109358;28;20031;-53
2022/05/09 02:09:28;;;;;;;9.23;4.97;;;;;;;;;;5109899;28;20038;-51
2022/05/09 02:11:54;;;;;;;9.93;5.05;;;;;;;;;;5109950;28;20026;-53
2022/05/09 02:14:20;;;;;;;11.63;5.13;;;;;;;;;;5106831;28;20393;-55
2022/05/09 02:16:46;;;;;;;9.00;4.55;;;;;;;;;;5109758;28;20074;-56
2022/05/09 02:19:12;;;;;;;9.48;4.60;;;;;;;;;;5109333;28;20883;-55
2022/05/09 02:21:39;;;;;;;10.00;4.53;;;;;;;;;;5108244;28;20591;-55
2022/05/09 02:24:06;;;;;;;7.88;4.10;;;;;;;;;;5109652;28;20054;-54
2022/05/09 02:26:33;;;;;;;10.93;4.95;;;;;;;;;;5107816;28;20027;-53
2022/05/09 02:28:59;;;;;;;8.55;4.10;;;;;;;;;;5109018;28;20462;-53
2022/05/09 02:31:26;;;;;;;8.85;4.80;;;;;;;;;;5109046;28;20034;-53
2022/05/09 02:33:52;;;;;;;8.18;4.30;;;;;;;;;;5109183;28;20059;-54
2022/05/09 02:36:18;;;;;;;8.02;4.47;;;;;;;;;;5109466;28;20814;-52
2022/05/09 02:38:44;;;;;;;9.90;4.80;;;;;;;;;;5108476;28;20027;-54
2022/05/09 02:41:10;;;;;;;7.90;4.55;;;;;;;;;;5108144;28;20023;-53
2022/05/09 02:43:36;;;;;;;9.85;4.43;;;;;;;;;;5109130;28;20075;-54
2022/05/09 02:46:06;;;;;;;10.25;5.00;;;;;;;;;;5108742;28;20431;-55
2022/05/09 02:48:35;;;;;;;10.45;4.40;;;;;;;;;;5108658;28;20035;-53
2022/05/09 02:51:01;;;;;;;9.10;4.35;;;;;;;;;;5108348;28;20115;-52
2022/05/09 02:53:27;;;;;;;7.90;4.13;;;;;;;;;;5108600;28;20065;-48
2022/05/09 02:55:53;;;;;;;7.50;4.35;;;;;;;;;;5103503;28;20138;-54
2022/05/09 02:58:19;;;;;;;7.65;3.78;;;;;;;;;;5108456;28;20020;-53
2022/05/09 03:00:45;;;;;;;9.48;3.85;;;;;;;;;;5108729;28;20118;-51
2022/05/09 03:05:57;;;;;;;7.95;4.05;;;;;;;;;;5108428;28;20034;-51
2022/05/09 03:08:24;;;;;;;8.50;3.92;;;;;;;;;;5108318;28;20478;-50
2022/05/09 03:10:50;;;;;;;7.75;3.95;;;;;;;;;;5106933;28;20405;-53
2022/05/09 03:13:16;;;;;;;6.65;3.55;;;;;;;;;;5108216;28;20418;-52
2022/05/09 03:15:46;;;;;;;9.43;4.32;;;;;;;;;;5108738;28;20032;-53
2022/05/09 03:18:13;;;;;;;7.18;3.80;;;;;;;;;;5108338;28;20085;-54
2022/05/09 03:20:40;;;;;;;9.25;3.90;;;;;;;;;;5106257;28;20039;-55
2022/05/09 03:23:07;;;;;;;8.70;3.85;;;;;;;;;;5108218;28;20541;-53
2022/05/09 03:25:36;;;;;;;8.13;3.72;;;;;;;;;;5108143;28;20024;-49
2022/05/09 03:28:06;;;;;;;6.80;3.60;;;;;;;;;;5107906;28;20087;-50
2022/05/09 03:30:33;;;;;;;8.10;3.72;;;;;;;;;;5108331;28;20043;-52
2022/05/09 03:32:59;;;;;;;8.02;4.07;;;;;;;;;;5108227;28;20097;-52
2022/05/09 03:35:25;;;;;;;8.60;3.35;;;;;;;;;;5105010;28;20028;-50
2022/05/09 03:37:53;;;;;;;8.77;3.92;;;;;;;;;;5096951;28;20103;-51
2022/05/09 03:40:20;;;;;;;9.55;3.42;;;;;;;;;;5108295;28;20051;-54
2022/05/09 03:42:46;;;;;;;8.70;3.80;;;;;;;;;;5107989;28;20389;-53
2022/05/09 03:45:12;;;;;;;6.55;3.17;;;;;;;;;;5107069;28;20016;-48
2022/05/09 03:47:38;;;;;;;7.80;3.17;;;;;;;;;;5097146;28;20034;-51
2022/05/09 03:50:04;;;;;;;7.47;3.40;;;;;;;;;;5102837;28;20048;-47
2022/05/09 03:52:31;;;;;;;8.15;3.70;;;;;;;;;;5107703;28;20066;-53
2022/05/09 03:54:57;;;;;;;7.90;3.85;;;;;;;;;;5110820;28;20110;-50
2022/05/09 03:57:23;;;;;;;6.45;3.20;;;;;;;;;;5110871;27;20068;-52
2022/05/09 03:59:50;;;;;;;6.18;3.15;;;;;;;;;;5110409;28;20535;-52
2022/05/09 04:02:16;;;;;;;9.57;3.90;;;;;;;;;;5110546;28;20122;-53
2022/05/09 04:04:42;;;;;;;7.03;3.28;;;;;;;;;;5110728;28;20049;-55
2022/05/09 04:07:08;;;;;;;7.90;3.50;;;;;;;;;;5094446;27;20111;-54
2022/05/09 04:09:34;;;;;;;6.47;3.28;;;;;;;;;;5106443;28;20398;-48
2022/05/09 04:12:00;;;;;;;7.95;3.63;;;;;;;;;;5111758;28;20106;-54
2022/05/09 04:17:11;;;;;;;8.85;4.38;;;;;;;;;;5110935;28;20084;-54
2022/05/09 04:19:38;;;;;;;7.30;3.30;;;;;;;;;;5107521;28;20023;-53
2022/05/09 04:22:04;;;;;;;9.13;3.75;;;;;;;;;;5111641;28;20140;-52
2022/05/09 04:24:31;;;;;;;7.32;3.38;;;;;;;;;;5111603;28;20676;-53
2022/05/09 04:26:58;;;;;;;8.68;3.40;;;;;;;;;;5112065;28;20031;-52
2022/05/09 04:29:24;;;;;;;7.72;3.22;;;;;;;;;;5111247;28;20528;-52
2022/05/09 04:31:50;;;;;;;6.03;3.35;;;;;;;;;;5111764;28;20126;-53
2022/05/09 04:34:16;;;;;;;6.88;3.72;;;;;;;;;;5106282;28;20051;-53
2022/05/09 04:36:42;;;;;;;6.93;3.53;;;;;;;;;;5111266;28;20064;-50
2022/05/09 04:39:08;;;;;;;6.85;3.15;;;;;;;;;;5111406;28;20024;-53
2022/05/09 04:41:36;;;;;;;8.50;3.72;;;;;;;;;;5110817;28;20440;-48
2022/05/09 04:44:03;;;;;;;8.38;3.60;;;;;;;;;;5110998;28;20020;-51
2022/05/09 04:46:29;;;;;;;7.28;3.65;;;;;;;;;;5111044;28;20462;-51
2022/05/09 04:48:55;;;;;;;7.30;3.08;;;;;;;;;;5109492;28;20084;-54
2022/05/09 04:51:22;;;;;;;7.60;3.22;;;;;;;;;;5111055;28;20504;-50
2022/05/09 04:53:49;;;;;;;7.28;3.40;;;;;;;;;;5111597;28;20395;-59
2022/05/09 04:56:16;;;;;;;8.52;3.97;;;;;;;;;;5101833;27;20371;-59
2022/05/09 04:58:42;;;;;;;9.25;3.33;;;;;;;;;;5105688;28;20028;-60
2022/05/09 05:01:09;;;;;;;18.73;3.38;;;;;;;;;;5101973;28;20111;-60
2022/05/09 05:03:35;;;;;;;14.07;4.07;;;;;;;;;;5109636;28;20055;-60
2022/05/09 05:06:03;;;;;;;16.33;3.88;;;;;;;;;;5110031;28;20091;-60
2022/05/09 05:08:38;;;;;;;20.23;3.95;;;;;;;;;;5111450;28;20048;-60
2022/05/09 05:11:05;;;;;;;15.27;4.50;;;;;;;;;;5110737;28;20040;-60
2022/05/09 05:13:33;;;;;;;13.48;3.33;;;;;;;;;;5110960;28;20076;-59
2022/05/09 05:15:59;;;;;;;17.15;3.83;;;;;;;;;;5105494;28;20525;-60
2022/05/09 05:18:27;;;;;;;14.05;3.53;;;;;;;;;;5110902;28;20038;-60
2022/05/09 05:20:53;;;;;;;18.33;4.25;;;;;;;;;;5110433;28;20027;-60
2022/05/09 05:23:19;;;;;;;18.70;3.70;;;;;;;;;;5109845;28;20517;-60
2022/05/09 05:25:48;;;;;;;12.32;3.58;;;;;;;;;;5110964;28;20040;-60
2022/05/09 05:28:14;;;;;;;11.27;3.40;;;;;;;;;;5110577;28;20477;-60
2022/05/09 05:30:41;;;;;;;17.88;4.10;;;;;;;;;;5104685;28;20085;-60
2022/05/09 05:33:07;;;;;;;12.45;3.85;;;;;;;;;;5110459;28;20429;-60
2022/05/09 05:35:33;;;;;;;12.23;3.33;;;;;;;;;;5110211;28;20027;-60
2022/05/09 05:37:59;;;;;;;13.07;3.92;;;;;;;;;;5110005;28;20036;-60
2022/05/09 05:40:25;;;;;;;13.02;3.63;;;;;;;;;;5110186;28;20076;-60
2022/05/09 05:42:53;;;;;;;18.52;4.05;;;;;;;;;;5110819;28;20107;-60
2022/05/09 05:45:21;;;;;;;12.88;3.45;;;;;;;;;;5091341;28;20081;-60
2022/05/09 05:47:48;;;;;;;14.45;3.67;;;;;;;;;;5110193;28;20435;-60
2022/05/09 05:50:15;;;;;;;16.48;3.60;;;;;;;;;;5108009;28;20167;-60
2022/05/09 05:52:41;;;;;;;15.23;4.22;;;;;;;;;;5108978;28;20062;-61
2022/05/09 05:55:08;;;;;;;11.35;3.80;;;;;;;;;;5108515;28;20022;-60
2022/05/09 05:57:37;;;;;;;13.73;3.35;;;;;;;;;;5108434;28;20122;-61
2022/05/09 06:00:06;;;;;;;11.80;3.97;;;;;;;;;;5107001;28;20036;-60
2022/05/09 06:02:33;;;;;;;14.57;3.88;;;;;;;;;;5106060;28;20056;-60
2022/05/09 06:04:59;;;;;;;11.73;3.42;;;;;;;;;;5109761;28;20115;-60
2022/05/09 06:07:25;;;;;;;12.13;3.78;;;;;;;;;;5108983;28;20686;-55
2022/05/09 06:09:52;;;;;;;22.77;4.65;;;;;;;;;;5109279;28;20477;-57
2022/05/09 06:12:19;;;;;;;12.80;3.90;;;;;;;;;;5108505;28;20046;-55
2022/05/09 06:15:24;;;;;;;16.80;5.10;;;;;;;;;;5110257;28;20055;-54
2022/05/09 06:17:34;;;;;;;18.25;4.93;;;;;;;;;;5107011;28;20032;-53
2022/05/09 06:20:00;;;;;;;16.20;5.78;;;;;;;;;;5108492;28;20042;-53
2022/05/09 06:22:26;;;;;;;16.17;4.68;;;;;;;;;;5107911;28;20027;-56
2022/05/09 06:24:59;;;;;;;15.70;4.45;;;;;;;;;;5108409;28;20031;-54
2022/05/09 06:27:25;;;;;;;30.92;4.97;;;;;;;;;;5108480;28;20043;-55
2022/05/09 06:29:51;;;;;;;22.83;5.05;;;;;;;;;;5104356;28;20045;-53
2022/05/09 06:32:19;;;;;;;14.25;4.15;;;;;;;;;;5105278;28;20040;-55
2022/05/09 06:34:45;;;;;;;15.35;4.32;;;;;;;;;;5107279;28;20036;-55
2022/05/09 06:37:11;;;;;;;17.25;5.50;;;;;;;;;;5108485;28;20023;-56
2022/05/09 06:39:37;;;;;;;19.70;4.78;;;;;;;;;;5108040;28;20023;-57
2022/05/09 06:42:04;;;;;;;15.07;4.00;;;;;;;;;;5105007;28;20035;-56
2022/05/09 06:44:30;;;;;;;19.65;4.43;;;;;;;;;;5108121;28;20023;-56
2022/05/09 06:46:56;;;;;;;20.75;5.18;;;;;;;;;;5106885;28;20496;-54
2022/05/09 06:49:22;;;;;;;15.13;4.03;;;;;;;;;;5106582;28;20023;-56
2022/05/09 06:51:48;;;;;;;23.45;5.38;;;;;;;;;;5105603;28;20055;-55
2022/05/09 06:54:18;;;;;;;17.23;4.30;;;;;;;;;;5094581;28;20031;-55
2022/05/09 06:56:45;;;;;;;12.45;4.30;;;;;;;;;;5098328;28;20024;-52
2022/05/09 06:59:11;;;;;;;15.90;4.22;;;;;;;;;;5096971;28;20027;-57
2022/05/09 07:01:37;;;;;;;14.50;4.45;;;;;;;;;;5098717;28;20460;-56
2022/05/09 07:04:04;;;;;;;23.88;4.75;;;;;;;;;;5097896;28;20035;-52
2022/05/09 07:06:30;;;;;;;21.30;4.95;;;;;;;;;;5098355;28;20478;-56
2022/05/09 07:09:17;;;;;;;20.17;4.47;;;;;;;;;;5095456;27;20334;-55
2022/05/09 07:11:44;;;;;;;24.90;5.43;;;;;;;;;;5074837;28;20026;-54
2022/05/09 07:14:10;;;;;;;18.33;5.07;;;;;;;;;;5077120;28;20776;-57
2022/05/09 07:16:36;;;;;;;15.85;4.53;;;;;;;;;;5077175;28;20021;-53
2022/05/09 07:19:04;;;;;;;14.70;4.10;;;;;;;;;;5075809;28;20103;-53
2022/05/09 07:21:31;;;;;;;18.65;4.55;;;;;;;;;;5075765;28;21184;-57
2022/05/09 07:23:58;;;;;;;14.98;4.80;;;;;;;;;;5075775;28;20020;-55
2022/05/09 07:26:24;;;;;;;14.60;4.18;;;;;;;;;;5076651;28;20157;-56
2022/05/09 07:28:51;;;;;;;14.38;4.70;;;;;;;;;;5077803;28;21661;-56
2022/05/09 07:31:17;;;;;;;16.08;4.57;;;;;;;;;;5076042;28;20723;-52
2022/05/09 07:33:44;;;;;;;14.32;5.03;;;;;;;;;;5077261;28;20498;-55
2022/05/09 07:36:10;;;;;;;18.23;5.32;;;;;;;;;;5075646;28;20040;-56
2022/05/09 07:38:36;;;;;;;13.13;4.68;;;;;;;;;;5080018;28;20024;-56
2022/05/09 07:41:02;;;;;;;20.98;5.57;;;;;;;;;;5083408;28;20039;-56
2022/05/09 07:43:30;;;;;;;17.95;5.05;;;;;;;;;;5083868;28;20052;-52
2022/05/09 07:45:56;;;;;;;13.35;4.95;;;;;;;;;;5080554;28;20028;-54
2022/05/09 07:48:23;;;;;;;12.75;4.85;;;;;;;;;;5083799;28;20028;-51
2022/05/09 07:50:50;;;;;;;14.70;6.00;;;;;;;;;;5082765;28;20103;-53
2022/05/09 07:53:20;;;;;;;12.40;5.18;;;;;;;;;;5083963;28;20020;-56
2022/05/09 07:55:47;;;;;;;18.58;5.30;;;;;;;;;;5086600;28;20078;-53
2022/05/09 07:58:14;;;;;;;14.07;5.07;;;;;;;;;;5083874;28;20079;-54
2022/05/09 08:00:41;;;;;;;18.65;5.38;;;;;;;;;;5075564;28;20051;-52
2022/05/09 08:03:12;;;;;;;15.63;4.78;;;;;;;;;;5075249;28;20165;-54
2022/05/09 08:05:38;;;;;;;15.85;5.28;;;;;;;;;;5077305;28;20139;-54
2022/05/09 08:08:04;;;;;;;11.32;4.57;;;;;;;;;;5076693;28;20144;-55
2022/05/09 08:10:30;;;;;;;20.17;5.40;;;;;;;;;;5077457;28;20059;-54
2022/05/09 08:12:58;;;;;;;15.05;5.57;;;;;;;;;;5075127;28;20074;-56
2022/05/09 08:15:25;;;;;;;14.73;5.05;;;;;;;;;;5074876;28;20036;-53
2022/05/09 08:17:52;;;;;;;17.58;5.38;;;;;;;;;;5075780;28;20039;-55
2022/05/09 08:20:19;;;;;;;15.45;4.30;;;;;;;;;;5063178;28;20831;-56
2022/05/09 08:22:45;;;;;;;17.00;5.25;;;;;;;;;;5061096;28;20418;-55
2022/05/09 08:25:13;;;;;;;12.82;4.75;;;;;;;;;;5060273;28;20036;-55
2022/05/09 08:27:40;;;;;;;13.98;5.30;;;;;;;;;;5058378;28;20127;-54
2022/05/09 08:30:58;;;;;;;15.70;4.50;;;;;;;;;;5060636;28;20039;-58
2022/05/09 08:33:07;;;;;;;17.17;5.78;;;;;;;;;;5053395;28;20097;-56
2022/05/09 08:35:33;;;;;;;19.10;6.43;;;;;;;;;;5061162;28;20139;-56
2022/05/09 08:37:59;;;;;;;13.68;5.78;;;;;;;;;;5063511;28;20498;-53
2022/05/09 08:40:36;;;;;;;16.02;5.82;;;;;;;;;;5062217;28;20096;-50
2022/05/09 08:43:16;;;;;;;15.13;5.03;;;;;;;;;;5060783;28;20713;-52
2022/05/09 08:45:47;;;;;;;15.77;5.10;;;;;;;;;;5063751;28;20033;-52
2022/05/09 08:48:13;;;;;;;14.27;5.43;;;;;;;;;;5060608;28;20044;-52
2022/05/09 08:50:59;;;;;;;18.27;5.78;;;;;;;;;;5062329;28;20028;-54
2022/05/09 08:53:26;;;;;;;22.02;6.07;;;;;;;;;;5053838;28;20128;-55
2022/05/09 08:55:53;;;;;;;17.80;5.07;;;;;;;;;;5064437;28;20097;-56
2022/05/09 08:58:22;;;;;;;15.80;6.28;;;;;;;;;;5061430;28;20032;-54
2022/05/09 09:00:49;;;;;;;15.32;5.13;;;;;;;;;;5060725;28;20032;-56
2022/05/09 09:03:19;;;;;;;15.30;5.25;;;;;;;;;;5062222;28;20394;-54
2022/05/09 09:05:47;;;;;;;10.82;5.28;;;;;;;;;;5060802;28;20582;-55
2022/05/09 09:08:24;;;;;;;17.00;5.05;;;;;;;;;;5061529;28;20056;-56
2022/05/09 09:11:22;;;;;;;11.35;4.60;;;;;;;;;;5062378;28;20111;-56
2022/05/09 09:13:51;;;;;;;14.02;5.03;;;;;;;;;;5044201;28;20044;-57
2022/05/09 09:16:36;;;;;;;9.70;4.47;;;;;;;;;;5061475;28;20489;-55
2022/05/09 09:19:20;;;;;;;20.10;4.95;;;;;;;;;;5061292;28;20063;-53
2022/05/09 09:22:07;;;;;;;17.20;4.82;;;;;;;;;;5062157;28;20052;-54
2022/05/09 09:24:51;;;;;;;19.65;5.43;;;;;;;;;;5062078;28;20032;-62
2022/05/09 09:27:20;;;;;;;13.55;5.15;;;;;;;;;;5060184;28;20070;-57
2022/05/09 09:29:50;;;;;;;22.15;5.50;;;;;;;;;;5062111;28;20135;-55
2022/05/09 09:32:22;;;;;;;19.10;5.10;;;;;;;;;;5059681;28;20020;-54
2022/05/09 09:35:07;;;;;;;19.17;4.88;;;;;;;;;;5059866;28;20032;-57
2022/05/09 09:37:33;;;;;;;14.45;5.03;;;;;;;;;;5061537;28;20044;-55
2022/05/09 09:40:00;;;;;;;16.42;5.45;;;;;;;;;;5061163;28;20743;-57
2022/05/09 09:42:27;;;;;;;15.98;4.65;;;;;;;;;;5061779;28;20047;-55
2022/05/09 09:44:58;;;;;;;18.52;4.63;;;;;;;;;;5061552;28;20024;-55
2022/05/09 09:47:25;;;;;;;11.70;4.00;;;;;;;;;;5059325;28;20082;-57
2022/05/09 09:50:14;;;;;;;13.32;4.47;;;;;;;;;;5061873;28;20035;-56
2022/05/09 09:52:45;;;;;;;18.83;5.40;;;;;;;;;;5055058;28;20065;-56
2022/05/09 09:55:21;;;;;;;16.63;3.90;;;;;;;;;;5061163;28;20029;-56
2022/05/09 09:57:48;;;;;;;14.60;3.83;;;;;;;;;;5061672;28;20432;-56
2022/05/09 10:00:36;;;;;;;12.07;3.90;;;;;;;;;;5061384;28;20017;-56
2022/05/09 10:03:22;;;;;;;12.30;4.32;;;;;;;;;;5062657;28;20043;-57
2022/05/09 10:05:50;;;;;;;13.30;3.58;;;;;;;;;;5062649;28;20055;-53
2022/05/09 10:08:33;;;;;;;11.88;3.70;;;;;;;;;;5063186;28;20086;-56
2022/05/09 10:11:02;;;;;;;12.98;3.97;;;;;;;;;;5060722;28;20038;-55
2022/05/09 10:13:36;;;;;;;10.85;3.85;;;;;;;;;;5060451;28;20048;-55
2022/05/09 10:16:04;;;;;;;10.15;3.10;;;;;;;;;;5061195;28;20124;-56
2022/05/09 10:18:32;;;;;;;19.35;4.13;;;;;;;;;;5059612;28;20477;-57
2022/05/09 10:21:00;;;;;;;20.50;5.25;;;;;;;;;;5059769;28;20032;-54
2022/05/09 10:26:29;;;;;;;13.95;3.50;;;;;;;;;;5060801;28;20152;-56
2022/05/09 10:29:00;;;;;;;15.02;2.97;;;;;;;;;;5061809;28;20502;-57
2022/05/09 10:31:42;;;;;;;15.13;3.85;;;;;;;;;;5061578;28;20033;-53
2022/05/09 10:34:08;;;;;;;22.02;3.13;;;;;;;;;;5060501;28;20040;-56
2022/05/09 10:36:38;;;;;;;11.93;3.58;;;;;;;;;;5060200;28;20421;-56
2022/05/09 10:39:13;;;;;;;13.03;3.43;;;;;;;;;;5061455;28;20036;-54
2022/05/09 10:41:44;;;;;;;16.70;3.42;;;;;;;;;;5065204;28;21148;-55
2022/05/09 10:44:32;;;;;;;8.50;3.17;;;;;;;;;;5068586;28;20039;-54
2022/05/09 10:47:06;;;;;;;10.65;3.55;;;;;;;;;;5057311;28;20066;-55
2022/05/09 10:49:52;;;;;;;11.07;3.13;;;;;;;;;;5062274;28;20131;-56
2022/05/09 10:52:25;;;;;;;15.35;3.45;;;;;;;;;;5065521;28;20124;-54
2022/05/09 10:54:54;;;;;;;13.65;3.20;;;;;;;;;;5067465;28;20096;-54
2022/05/09 10:57:34;;;;;;;12.50;2.93;;;;;;;;;;5067017;28;20071;-54
2022/05/09 11:00:11;;;;;;;11.05;2.78;;;;;;;;;;5068026;28;20078;-55
2022/05/09 11:02:43;;;;;;;11.25;3.00;;;;;;;;;;5068045;28;20119;-54
2022/05/09 11:05:09;;;;;;;10.48;3.00;;;;;;;;;;5067642;28;20100;-54
2022/05/09 11:07:38;;;;;;;15.25;3.13;;;;;;;;;;5066305;28;20063;-55
2022/05/09 11:10:07;;;;;;;12.40;3.03;;;;;;;;;;5066628;28;20031;-53
2022/05/09 11:12:33;;;;;;;10.10;2.50;;;;;;;;;;5066089;28;20079;-55
2022/05/09 11:15:19;;;;;;;8.60;2.65;;;;;;;;;;5065698;28;20052;-56
2022/05/09 11:17:45;;;;;;;11.73;2.78;;;;;;;;;;5066175;28;20024;-55
2022/05/09 11:20:29;;;;;;;8.85;2.40;;;;;;;;;;5066434;28;20031;-57
2022/05/09 11:22:58;;;;;;;8.90;2.33;;;;;;;;;;5066703;28;20044;-57
2022/05/09 11:25:44;;;;;;;10.55;2.15;;;;;;;;;;5067882;28;20115;-55
2022/05/09 11:28:10;;;;;;;11.50;3.13;;;;;;;;;;5067712;28;20376;-58
2022/05/09 11:30:49;;;;;;;8.98;2.35;;;;;;;;;;5067926;28;20433;-56
2022/05/09 11:33:20;;;;;;;9.18;2.65;;;;;;;;;;5067426;28;20543;-54
2022/05/09 11:35:49;;;;;;;8.27;2.35;;;;;;;;;;5067580;28;20063;-55
2022/05/09 11:38:38;;;;;;;9.18;1.90;;;;;;;;;;5068034;28;20107;-52
2022/05/09 11:41:37;;;;;;;7.40;2.03;;;;;;;;;;5057848;28;20466;-59
2022/05/09 11:44:09;;;;;;;10.35;2.22;;;;;;;;;;5054934;28;20116;-54
2022/05/09 11:46:38;;;;;;;10.85;2.25;;;;;;;;;;5067117;28;20394;-58
2022/05/09 11:49:10;;;;;;;8.07;2.50;;;;;;;;;;5067674;28;20071;-57
2022/05/09 11:51:43;;;;;;;9.02;2.70;;;;;;;;;;5067743;28;20534;-54
2022/05/09 11:54:15;;;;;;;7.15;1.80;;;;;;;;;;5068423;28;20116;-58
2022/05/09 11:56:43;;;;;;;9.35;3.15;;;;;;;;;;5071278;28;20070;-58
2022/05/09 11:59:13;;;;;;;5.15;2.10;;;;;;;;;;5070081;28;20482;-56
2022/05/09 12:01:56;;;;;;;7.80;2.45;;;;;;;;;;5060640;28;20104;-55
2022/05/09 12:04:30;;;;;;;7.00;2.13;;;;;;;;;;5070568;28;20025;-55
2022/05/09 12:06:56;;;;;;;7.07;2.13;;;;;;;;;;5071319;28;20029;-56
2022/05/09 12:09:40;;;;;;;6.90;1.67;;;;;;;;;;5070748;28;20074;-56
2022/05/09 12:12:07;;;;;;;10.45;2.55;;;;;;;;;;5061920;28;20029;-56
2022/05/09 12:14:59;;;;;;;5.82;1.70;;;;;;;;;;5070821;28;20107;-54
2022/05/09 12:17:33;;;;;;;8.63;1.67;;;;;;;;;;5050247;28;20142;-55
2022/05/09 12:19:59;;;;;;;8.48;1.73;;;;;;;;;;5057216;28;20025;-58
2022/05/09 12:22:39;;;;;;;5.75;1.83;;;;;;;;;;5071088;28;20025;-57
2022/05/09 12:25:10;;;;;;;5.07;1.52;;;;;;;;;;5071077;28;20032;-57
2022/05/09 12:27:46;;;;;;;7.63;2.30;;;;;;;;;;5070743;28;20024;-55
2022/05/09 12:30:14;;;;;;;5.00;1.80;;;;;;;;;;5070966;28;20059;-56
2022/05/09 12:32:40;;;;;;;7.97;2.00;;;;;;;;;;5070638;28;20116;-57
2022/05/09 12:35:08;;;;;;;6.90;1.85;;;;;;;;;;5070497;28;20558;-57
2022/05/09 12:37:43;;;;;;;8.05;1.50;;;;;;;;;;5070639;28;20033;-57
2022/05/09 12:40:19;;;;;;;7.18;2.13;;;;;;;;;;5070493;28;20028;-57
2022/05/09 12:42:48;;;;;;;6.57;2.00;;;;;;;;;;5068791;28;20494;-56
2022/05/09 12:45:15;;;;;;;11.65;2.08;;;;;;;;;;5070624;28;20029;-57
2022/05/09 12:47:41;;;;;;;6.15;1.70;;;;;;;;;;5070002;28;20132;-56
2022/05/09 12:50:09;;;;;;;8.05;1.98;;;;;;;;;;5070383;28;20471;-55
2022/05/09 12:52:43;;;;;;;6.05;1.40;;;;;;;;;;5070346;28;20020;-56
2022/05/09 12:57:55;;;;;;;6.53;2.28;;;;;;;;;;5069750;28;20035;-57
2022/05/09 13:00:26;;;;;;;5.75;2.05;;;;;;;;;;5070083;28;20024;-57
2022/05/09 13:02:52;;;;;;;7.57;1.80;;;;;;;;;;5069917;28;20121;-56
2022/05/09 13:05:31;;;;;;;4.65;1.48;;;;;;;;;;5070031;28;20352;-56
2022/05/09 13:07:59;;;;;;;8.77;2.42;;;;;;;;;;5069875;28;20163;-56
2022/05/09 13:10:25;;;;;;;6.32;2.00;;;;;;;;;;5070061;28;20155;-56
2022/05/09 13:12:56;;;;;;;6.28;1.88;;;;;;;;;;5069602;28;20029;-58
2022/05/09 13:15:22;;;;;;;6.07;1.75;;;;;;;;;;5070033;28;20025;-56
2022/05/09 13:17:50;;;;;;;4.68;1.25;;;;;;;;;;5068274;28;20111;-57
2022/05/09 13:20:18;;;;;;;5.53;1.80;;;;;;;;;;5067476;28;20449;-57
2022/05/09 13:23:01;;;;;;;7.88;1.85;;;;;;;;;;5069514;28;20062;-58
2022/05/09 13:25:32;;;;;;;6.40;1.88;;;;;;;;;;5069755;28;20025;-58
2022/05/09 13:27:59;;;;;;;6.65;1.70;;;;;;;;;;5069495;28;20036;-58
2022/05/09 13:30:25;;;;;;;10.57;2.47;;;;;;;;;;5069675;28;20445;-58
2022/05/09 13:32:56;;;;;;;7.03;2.17;;;;;;;;;;5069537;28;20022;-57
2022/05/09 13:35:26;;;;;;;7.57;2.55;;;;;;;;;;5068940;28;20119;-55
2022/05/09 13:37:53;;;;;;;10.95;2.70;;;;;;;;;;5069395;28;20024;-55
2022/05/09 13:40:20;;;;;;;7.85;2.30;;;;;;;;;;5068588;28;20021;-58
2022/05/09 13:42:47;;;;;;;7.97;2.53;;;;;;;;;;5069377;28;20099;-58
2022/05/09 13:45:18;;;;;;;6.85;2.08;;;;;;;;;;5069737;28;20134;-57
2022/05/09 13:47:45;;;;;;;6.97;1.98;;;;;;;;;;5068409;28;20390;-58
2022/05/09 13:50:13;;;;;;;6.55;2.25;;;;;;;;;;5067878;28;20052;-59
2022/05/09 13:52:40;;;;;;;8.82;2.00;;;;;;;;;;5067428;28;20023;-58
2022/05/09 13:55:09;;;;;;;9.40;2.08;;;;;;;;;;5068203;28;20031;-58
2022/05/09 13:57:36;;;;;;;6.68;2.00;;;;;;;;;;5067419;28;20052;-56
2022/05/09 14:00:06;;;;;;;6.45;2.30;;;;;;;;;;5067786;28;20028;-58
2022/05/09 14:02:32;;;;;;;;;;;;;;;;;;5068576;28;20032;-58
2022/05/09 14:05:02;;;;;;;7.93;1.98;;;;;;;;;;5068639;28;19940;-58
2022/05/09 14:07:41;;;;;;;6.85;2.10;;;;;;;;;;5067942;28;20048;-58
2022/05/09 14:10:27;;;;;;;7.10;1.73;;;;;;;;;;5068849;28;20029;-58
2022/05/09 14:12:54;;;;;;;5.45;1.50;;;;;;;;;;5047355;28;20127;-58
2022/05/09 14:15:21;;;;;;;7.88;2.55;;;;;;;;;;5068087;28;20025;-55
2022/05/09 14:18:00;;;;;;;9.07;1.63;;;;;;;;;;5067213;28;20028;-56
2022/05/09 14:20:28;;;;;;;6.45;2.00;;;;;;;;;;5068412;28;20025;-56
2022/05/09 14:22:54;;;;;;;5.97;1.80;;;;;;;;;;5068274;28;20364;-57
2022/05/09 14:30:50;;;;;;;17.33;3.03;;;;;;;;;;5067852;28;21396;-56
2022/05/09 14:33:35;;;;;;;12.18;2.85;;;;;;;;;;5068143;28;20430;-57
2022/05/09 14:36:04;;;;;;;13.98;3.22;;;;;;;;;;5067436;28;21017;-58
2022/05/09 14:38:30;;;;;;;12.20;3.95;;;;;;;;;;5068771;28;20072;-57
2022/05/09 14:44:10;;;;;;;10.80;3.15;;;;;;;;;;5068679;28;20086;-57
2022/05/09 14:46:43;;;;;;;9.70;3.28;;;;;;;;;;5060873;28;20082;-56
2022/05/09 14:49:10;;;;;;;9.93;3.65;;;;;;;;;;5062533;28;20041;-56
2022/05/09 14:51:36;;;;;;;10.73;3.55;;;;;;;;;;5064473;28;20021;-57
2022/05/09 14:54:02;;;;;;;12.60;4.50;;;;;;;;;;5048399;28;20044;-57
2022/05/09 14:59:31;;;;;;;17.45;4.25;;;;;;;;;;5055605;28;20124;-56
2022/05/09 15:02:01;;;;;;;10.15;3.83;;;;;;;;;;5067368;28;20029;-57
2022/05/09 15:04:27;;;;;;;14.10;4.20;;;;;;;;;;5066890;28;20021;-55
2022/05/09 15:06:53;;;;;;;10.02;3.88;;;;;;;;;;5066531;28;20259;-58
2022/05/09 15:09:19;;;;;;;16.35;4.13;;;;;;;;;;5066289;28;20060;-57
2022/05/09 15:11:45;;;;;;;7.93;3.90;;;;;;;;;;5065275;28;20111;-56
2022/05/09 15:14:13;;;;;;;7.50;3.55;;;;;;;;;;5068082;28;20059;-57